createdAt,value
2022-10-16T00:01:21.843Z,6.00
2022-10-16T00:03:51.020Z,6.97
2022-10-16T00:06:21.331Z,6.40
2022-10-16T00:08:50.452Z,6.43
2022-10-16T00:11:20.677Z,7.33
2022-10-16T00:13:49.979Z,6.67
2022-10-16T00:16:20.413Z,7.03
2022-10-16T00:18:48.863Z,6.63
2022-10-16T00:21:19.319Z,6.87
2022-10-16T00:23:47.742Z,6.87
2022-10-16T00:26:17.992Z,6.27
2022-10-16T00:28:48.808Z,6.13
2022-10-16T00:31:17.477Z,6.20
2022-10-16T00:33:47.092Z,7.70
2022-10-16T00:36:17.220Z,6.50
2022-10-16T00:38:45.340Z,6.40
2022-10-16T00:41:15.477Z,6.87
2022-10-16T00:43:46.302Z,7.23
2022-10-16T00:46:21.155Z,6.70
2022-10-16T00:48:54.168Z,6.67
2022-10-16T00:51:25.438Z,6.87
2022-10-16T00:53:54.284Z,7.37
2022-10-16T00:56:22.658Z,5.93
2022-10-16T00:58:51.043Z,6.70
2022-10-16T01:01:19.342Z,7.10
2022-10-16T01:03:47.446Z,6.90
2022-10-16T01:06:26.192Z,7.40
2022-10-16T01:09:09.075Z,7.47
2022-10-16T01:11:46.318Z,6.83
2022-10-16T01:14:21.973Z,6.80
2022-10-16T01:16:54.747Z,6.47
2022-10-16T01:19:35.269Z,6.93
2022-10-16T01:22:06.534Z,6.17
2022-10-16T01:24:40.891Z,6.67
2022-10-16T01:27:13.924Z,6.50
2022-10-16T01:29:51.685Z,7.10
2022-10-16T01:32:28.478Z,7.00
2022-10-16T01:35:01.502Z,6.50
2022-10-16T01:37:37.469Z,7.23
2022-10-16T01:40:10.626Z,6.77
2022-10-16T01:42:44.007Z,6.97
2022-10-16T01:45:15.691Z,7.17
2022-10-16T01:47:45.270Z,7.70
2022-10-16T01:50:16.571Z,6.77
2022-10-16T01:52:48.640Z,7.63
2022-10-16T01:55:21.930Z,6.93
2022-10-16T01:57:53.467Z,8.20
2022-10-16T02:00:23.954Z,7.07
2022-10-16T02:02:55.956Z,6.80
2022-10-16T02:05:29.626Z,6.73
2022-10-16T02:07:59.429Z,7.67
2022-10-16T02:10:32.763Z,7.10
2022-10-16T02:13:08.469Z,6.97
2022-10-16T02:15:36.622Z,7.40
2022-10-16T02:18:05.767Z,7.67
2022-10-16T02:20:42.481Z,7.47
2022-10-16T02:23:15.990Z,7.57
2022-10-16T02:25:48.589Z,7.50
2022-10-16T02:28:21.876Z,6.93
2022-10-16T02:30:54.647Z,6.73
2022-10-16T02:33:25.527Z,6.37
2022-10-16T02:35:54.738Z,8.00
2022-10-16T02:38:24.201Z,7.73
2022-10-16T02:40:52.719Z,7.57
2022-10-16T02:43:22.330Z,7.33
2022-10-16T02:45:50.459Z,7.07
2022-10-16T02:48:18.375Z,6.70
2022-10-16T02:50:46.381Z,7.33
2022-10-16T02:53:14.380Z,7.63
2022-10-16T02:55:43.088Z,7.17
2022-10-16T02:58:11.846Z,7.83
2022-10-16T03:00:41.362Z,7.70
2022-10-16T03:03:09.406Z,7.40
2022-10-16T03:05:37.360Z,7.17
2022-10-16T03:08:05.468Z,7.47
2022-10-16T03:10:33.506Z,7.80
2022-10-16T03:13:01.520Z,7.33
2022-10-16T03:15:30.267Z,6.87
2022-10-16T03:18:01.094Z,6.93
2022-10-16T03:20:29.268Z,7.07
2022-10-16T03:22:57.544Z,7.17
2022-10-16T03:25:25.855Z,6.33
2022-10-16T03:27:54.608Z,6.33
2022-10-16T03:30:22.549Z,7.23
2022-10-16T03:32:55.277Z,6.73
2022-10-16T03:35:25.827Z,7.40
2022-10-16T03:37:54.126Z,7.87
2022-10-16T03:40:22.461Z,7.63
2022-10-16T03:42:50.566Z,8.17
2022-10-16T03:45:18.707Z,6.70
2022-10-16T03:47:46.835Z,7.20
2022-10-16T03:50:15.007Z,6.40
2022-10-16T03:52:44.420Z,6.60
2022-10-16T03:55:12.753Z,7.43
2022-10-16T03:57:40.876Z,7.63
2022-10-16T04:00:09.822Z,6.73
2022-10-16T04:02:37.859Z,7.33
2022-10-16T04:05:06.596Z,7.17
2022-10-16T04:07:34.689Z,7.80
2022-10-16T04:10:04.679Z,7.37
2022-10-16T04:12:32.892Z,7.17
2022-10-16T04:15:01.336Z,7.57
2022-10-16T04:17:29.439Z,6.90
2022-10-16T04:19:57.645Z,6.07
2022-10-16T04:24:58.780Z,6.50
2022-10-16T04:27:29.551Z,7.07
2022-10-16T04:29:58.027Z,6.73
2022-10-16T04:32:26.447Z,6.10
2022-10-16T04:34:54.481Z,6.97
2022-10-16T04:37:26.692Z,6.77
2022-10-16T04:39:55.643Z,7.20
2022-10-16T04:42:23.928Z,6.50
2022-10-16T04:44:53.417Z,7.50
2022-10-16T04:47:21.732Z,6.23
2022-10-16T04:49:50.375Z,7.83
2022-10-16T04:52:19.983Z,6.40
2022-10-16T04:54:48.115Z,6.17
2022-10-16T04:57:16.274Z,7.47
2022-10-16T04:59:44.449Z,7.50
2022-10-16T05:02:14.055Z,7.33
2022-10-16T05:04:42.114Z,6.87
2022-10-16T05:07:10.118Z,6.97
2022-10-16T05:09:38.582Z,10.13
2022-10-16T05:12:06.829Z,7.55
2022-10-16T05:14:34.984Z,6.27
2022-10-16T05:17:03.245Z,8.10
2022-10-16T05:19:32.666Z,8.80
2022-10-16T05:22:00.970Z,8.80
2022-10-16T05:24:29.662Z,7.97
2022-10-16T05:26:58.097Z,8.32
2022-10-16T05:29:26.442Z,6.87
2022-10-16T05:31:55.581Z,7.67
2022-10-16T05:34:23.689Z,6.97
2022-10-16T05:36:53.296Z,7.90
2022-10-16T05:39:21.522Z,7.03
2022-10-16T05:41:53.447Z,7.27
2022-10-16T05:44:21.743Z,8.03
2022-10-16T05:46:50.020Z,7.97
2022-10-16T05:49:17.994Z,7.20
2022-10-16T05:51:46.175Z,6.53
2022-10-16T05:54:15.676Z,7.47
2022-10-16T05:56:43.971Z,6.80
2022-10-16T05:59:12.408Z,6.60
2022-10-16T06:01:40.421Z,6.73
2022-10-16T06:04:08.663Z,6.97
2022-10-16T06:06:37.423Z,7.53
2022-10-16T06:09:06.187Z,7.83
2022-10-16T06:11:35.969Z,7.73
2022-10-16T06:14:07.943Z,9.37
2022-10-16T06:16:37.005Z,12.20
2022-10-16T06:19:07.620Z,7.30
2022-10-16T06:21:35.913Z,7.10
2022-10-16T06:24:04.007Z,6.50
2022-10-16T06:26:33.294Z,6.93
2022-10-16T06:29:02.906Z,6.63
2022-10-16T06:31:32.694Z,6.68
2022-10-16T06:34:01.108Z,7.13
2022-10-16T06:36:29.243Z,6.80
2022-10-16T06:38:57.315Z,6.87
2022-10-16T06:41:25.742Z,7.43
2022-10-16T06:43:54.281Z,6.97
2022-10-16T06:46:25.828Z,6.17
2022-10-16T06:48:54.974Z,7.07
2022-10-16T06:51:24.689Z,6.87
2022-10-16T06:54:02.850Z,6.70
2022-10-16T06:56:32.866Z,7.13
2022-10-16T06:59:01.566Z,5.97
2022-10-16T07:01:31.571Z,6.77
2022-10-16T07:03:59.552Z,6.33
2022-10-16T07:06:29.239Z,6.33
2022-10-16T07:08:57.242Z,6.53
2022-10-16T07:11:26.579Z,7.87
2022-10-16T07:13:56.146Z,6.73
2022-10-16T07:16:26.658Z,6.70
2022-10-16T07:18:59.930Z,6.17
2022-10-16T07:21:30.173Z,6.17
2022-10-16T07:24:00.221Z,6.13
2022-10-16T07:26:31.056Z,5.97
2022-10-16T07:28:59.565Z,6.27
2022-10-16T07:31:27.637Z,6.37
2022-10-16T07:33:58.171Z,6.27
2022-10-16T07:36:26.290Z,6.30
2022-10-16T07:38:58.647Z,6.43
2022-10-16T07:41:28.935Z,6.23
2022-10-16T07:43:58.443Z,7.50
2022-10-16T07:46:26.506Z,7.03
2022-10-16T07:48:56.268Z,7.13
2022-10-16T07:51:26.645Z,7.43
2022-10-16T07:53:54.938Z,8.27
2022-10-16T07:56:23.911Z,8.53
2022-10-16T07:58:52.799Z,7.03
2022-10-16T08:01:21.024Z,6.80
2022-10-16T08:03:51.200Z,6.33
2022-10-16T08:06:26.707Z,8.63
2022-10-16T08:08:56.796Z,6.00
2022-10-16T08:11:25.243Z,6.03
2022-10-16T08:13:53.297Z,6.20
2022-10-16T08:16:21.624Z,6.00
2022-10-16T08:18:49.772Z,6.23
2022-10-16T08:21:21.737Z,6.37
2022-10-16T08:23:54.694Z,5.80
2022-10-16T08:26:26.395Z,7.30
2022-10-16T08:28:54.768Z,6.97
2022-10-16T08:31:23.223Z,7.97
2022-10-16T08:33:51.220Z,7.03
2022-10-16T08:36:20.538Z,6.47
2022-10-16T08:38:51.019Z,6.27
2022-10-16T08:41:30.106Z,6.50
2022-10-16T08:44:21.510Z,7.53
2022-10-16T08:46:58.338Z,8.07
2022-10-16T08:49:26.988Z,7.83
2022-10-16T08:51:58.399Z,7.07
2022-10-16T08:54:32.037Z,7.60
2022-10-16T08:57:10.069Z,8.77
2022-10-16T08:59:38.171Z,7.13
2022-10-16T09:02:27.167Z,7.63
2022-10-16T09:05:05.495Z,6.73
2022-10-16T09:07:41.847Z,6.97
2022-10-16T09:10:26.512Z,6.93
2022-10-16T09:13:02.448Z,8.17
2022-10-16T09:15:37.307Z,7.70
2022-10-16T09:18:14.988Z,8.10
2022-10-16T09:20:51.191Z,7.43
2022-10-16T09:23:24.457Z,7.80
2022-10-16T09:25:52.652Z,7.20
2022-10-16T09:28:21.130Z,7.83
2022-10-16T09:30:50.939Z,7.83
2022-10-16T09:33:22.720Z,8.37
2022-10-16T09:35:53.814Z,7.80
2022-10-16T09:38:29.332Z,6.93
2022-10-16T09:41:03.229Z,7.70
2022-10-16T09:43:37.498Z,7.23
2022-10-16T09:46:07.164Z,8.17
2022-10-16T09:48:40.203Z,9.10
2022-10-16T09:51:18.348Z,7.80
2022-10-16T09:53:49.122Z,8.63
2022-10-16T09:56:24.996Z,8.20
2022-10-16T09:58:54.352Z,8.10
2022-10-16T10:01:25.469Z,7.17
2022-10-16T10:04:01.971Z,7.80
2022-10-16T10:06:32.042Z,7.73
2022-10-16T10:09:08.265Z,8.20
2022-10-16T10:11:42.411Z,7.80
2022-10-16T10:14:18.970Z,8.47
2022-10-16T10:16:47.720Z,8.27
2022-10-16T10:19:19.788Z,8.07
2022-10-16T10:21:48.368Z,7.27
2022-10-16T10:24:20.033Z,8.20
2022-10-16T10:26:58.133Z,7.70
2022-10-16T10:29:36.844Z,7.73
2022-10-16T10:32:15.909Z,7.87
2022-10-16T10:35:15.317Z,7.40
2022-10-16T10:37:57.319Z,8.00
2022-10-16T10:40:40.873Z,7.23
2022-10-16T10:43:19.555Z,7.43
2022-10-16T10:45:49.532Z,7.50
2022-10-16T10:48:30.342Z,8.00
2022-10-16T10:51:04.256Z,7.80
2022-10-16T10:53:44.561Z,7.90
2022-10-16T10:56:28.680Z,8.20
2022-10-16T10:59:10.471Z,7.07
2022-10-16T11:01:50.266Z,8.30
2022-10-16T11:04:43.716Z,8.37
2022-10-16T11:07:18.575Z,8.37
2022-10-16T11:09:49.602Z,8.77
2022-10-16T11:12:22.808Z,7.87
2022-10-16T11:14:57.268Z,8.20
2022-10-16T11:17:30.810Z,7.73
2022-10-16T11:20:04.105Z,7.07
2022-10-16T11:22:37.112Z,7.73
2022-10-16T11:25:18.549Z,8.63
2022-10-16T11:27:54.400Z,9.00
2022-10-16T11:30:25.246Z,7.60
2022-10-16T11:33:03.119Z,8.10
2022-10-16T11:35:42.126Z,7.60
2022-10-16T11:38:16.775Z,8.10
2022-10-16T11:40:48.740Z,8.17
2022-10-16T11:43:24.290Z,7.90
2022-10-16T11:45:56.293Z,8.17
2022-10-16T11:48:30.193Z,7.63
2022-10-16T11:51:03.655Z,8.13
2022-10-16T11:53:47.059Z,7.83
2022-10-16T11:56:17.919Z,7.90
2022-10-16T11:58:56.816Z,8.47
2022-10-16T12:01:32.887Z,7.57
2022-10-16T12:04:23.543Z,7.67
2022-10-16T12:06:56.616Z,8.50
2022-10-16T12:09:28.359Z,7.30
2022-10-16T12:11:56.514Z,7.90
2022-10-16T12:14:57.250Z,7.83
2022-10-16T12:17:29.048Z,8.60
2022-10-16T12:20:02.910Z,7.67
2022-10-16T12:22:33.115Z,7.60
2022-10-16T12:25:02.504Z,7.67
2022-10-16T12:27:32.630Z,8.63
2022-10-16T12:30:04.452Z,7.20
2022-10-16T12:32:46.632Z,9.43
2022-10-16T12:35:22.986Z,7.90
2022-10-16T12:37:52.030Z,7.67
2022-10-16T12:40:30.208Z,7.93
2022-10-16T12:42:58.450Z,7.77
2022-10-16T12:45:32.134Z,7.60
2022-10-16T12:48:02.012Z,7.63
2022-10-16T12:50:37.624Z,7.70
2022-10-16T12:53:19.494Z,8.17
2022-10-16T12:55:58.612Z,7.97
2022-10-16T12:58:45.971Z,8.07
2022-10-16T13:01:27.972Z,7.83
2022-10-16T13:04:13.654Z,7.60
2022-10-16T13:06:51.223Z,8.40
2022-10-16T13:09:38.502Z,7.77
2022-10-16T13:12:24.651Z,8.73
2022-10-16T13:15:14.161Z,8.27
2022-10-16T13:17:50.508Z,8.20
2022-10-16T13:20:28.035Z,8.33
2022-10-16T13:23:05.265Z,7.70
2022-10-16T13:25:45.620Z,8.23
2022-10-16T13:28:15.519Z,6.77
2022-10-16T13:30:46.354Z,7.73
2022-10-16T13:33:21.653Z,8.10
2022-10-16T13:35:52.724Z,8.07
2022-10-16T13:38:22.355Z,7.77
2022-10-16T13:40:56.729Z,8.07
2022-10-16T13:43:29.387Z,7.47
2022-10-16T13:46:00.363Z,8.33
2022-10-16T13:48:30.261Z,6.57
2022-10-16T13:51:06.565Z,7.43
2022-10-16T13:53:36.864Z,7.77
2022-10-16T13:56:06.795Z,8.20
2022-10-16T13:58:35.194Z,7.93
2022-10-16T14:01:06.530Z,8.83
2022-10-16T14:03:37.801Z,6.97
2022-10-16T14:06:10.051Z,7.23
2022-10-16T14:08:38.168Z,8.07
2022-10-16T14:11:06.508Z,8.10
2022-10-16T14:13:39.541Z,7.53
2022-10-16T14:16:11.950Z,7.90
2022-10-16T14:18:42.720Z,6.83
2022-10-16T14:21:17.043Z,8.23
2022-10-16T14:23:45.666Z,7.53
2022-10-16T14:26:19.996Z,8.27
2022-10-16T14:28:49.089Z,7.40
2022-10-16T14:31:28.149Z,8.00
2022-10-16T14:33:58.389Z,8.47
2022-10-16T14:36:28.178Z,7.70
2022-10-16T14:39:02.729Z,7.97
2022-10-16T14:41:32.470Z,7.17
2022-10-16T14:44:05.024Z,6.53
2022-10-16T14:46:37.026Z,8.63
2022-10-16T14:49:18.961Z,9.10
2022-10-16T14:51:47.121Z,9.60
2022-10-16T14:54:16.134Z,9.67
2022-10-16T14:56:49.183Z,8.87
2022-10-16T14:59:19.875Z,7.40
2022-10-16T15:01:48.414Z,7.67
2022-10-16T15:04:18.841Z,8.47
2022-10-16T15:06:46.923Z,7.43
2022-10-16T15:09:15.191Z,7.97
2022-10-16T15:11:44.227Z,7.13
2022-10-16T15:16:42.870Z,8.67
2022-10-16T15:19:10.868Z,9.67
2022-10-16T15:21:40.453Z,10.63
2022-10-16T15:24:16.504Z,9.33
2022-10-16T15:26:48.061Z,8.67
2022-10-16T15:29:16.605Z,7.73
2022-10-16T15:31:44.810Z,7.80
2022-10-16T15:34:14.215Z,7.87
2022-10-16T15:36:43.691Z,8.37
2022-10-16T15:39:16.061Z,8.77
2022-10-16T15:41:44.890Z,8.97
2022-10-16T15:44:13.037Z,10.20
2022-10-16T15:46:40.951Z,9.67
2022-10-16T15:49:09.171Z,9.60
2022-10-16T15:51:40.770Z,9.03
2022-10-16T15:54:10.983Z,7.50
2022-10-16T15:56:38.981Z,7.43
2022-10-16T15:59:08.158Z,8.10
2022-10-16T16:01:37.092Z,7.67
2022-10-16T16:04:11.371Z,8.00
2022-10-16T16:06:48.974Z,7.67
2022-10-16T16:09:18.307Z,8.90
2022-10-16T16:11:46.377Z,8.40
2022-10-16T16:14:16.171Z,8.73
2022-10-16T16:16:44.854Z,8.27
2022-10-16T16:19:13.100Z,7.70
2022-10-16T16:21:41.283Z,7.90
2022-10-16T16:24:09.919Z,7.93
2022-10-16T16:26:41.007Z,7.37
2022-10-16T16:29:09.565Z,8.07
2022-10-16T16:31:37.774Z,8.10
2022-10-16T16:34:06.041Z,8.47
2022-10-16T16:36:34.545Z,8.27
2022-10-16T16:39:03.088Z,9.57
2022-10-16T16:41:32.149Z,10.47
2022-10-16T16:44:10.692Z,8.27
2022-10-16T16:46:40.472Z,7.43
2022-10-16T16:49:09.144Z,8.30
2022-10-16T16:51:39.899Z,7.37
2022-10-16T16:54:09.447Z,8.10
2022-10-16T16:56:37.660Z,8.13
2022-10-16T16:59:07.177Z,7.90
2022-10-16T17:01:35.131Z,8.63
2022-10-16T17:04:03.521Z,9.53
2022-10-16T17:06:31.774Z,8.43
2022-10-16T17:09:00.669Z,8.50
2022-10-16T17:11:29.338Z,8.70
2022-10-16T17:13:59.414Z,6.93
2022-10-16T17:16:30.713Z,7.93
2022-10-16T17:19:02.482Z,8.03
2022-10-16T17:21:33.988Z,7.97
2022-10-16T17:24:02.717Z,8.37
2022-10-16T17:26:31.362Z,7.67
2022-10-16T17:29:01.572Z,7.07
2022-10-16T17:31:35.501Z,7.33
2022-10-16T17:34:05.585Z,8.23
2022-10-16T17:36:35.489Z,8.27
2022-10-16T17:39:06.075Z,7.67
2022-10-16T17:41:34.756Z,7.23
2022-10-16T17:44:02.728Z,7.47
2022-10-16T17:46:36.966Z,7.27
2022-10-16T17:49:08.362Z,7.50
2022-10-16T17:51:36.654Z,6.90
2022-10-16T17:54:04.875Z,6.13
2022-10-16T17:56:33.054Z,6.13
2022-10-16T17:59:03.258Z,6.03
2022-10-16T18:01:35.453Z,7.23
2022-10-16T18:04:07.369Z,5.83
2022-10-16T18:06:35.739Z,7.27
2022-10-16T18:09:05.196Z,6.33
2022-10-16T18:11:33.592Z,7.07
2022-10-16T18:14:01.947Z,6.57
2022-10-16T18:16:33.445Z,7.00
2022-10-16T18:19:02.414Z,6.67
2022-10-16T18:21:30.448Z,6.43
2022-10-16T18:24:01.426Z,6.70
2022-10-16T18:26:30.036Z,5.93
2022-10-16T18:29:00.681Z,7.60
2022-10-16T18:31:30.820Z,6.50
2022-10-16T18:34:00.473Z,6.67
2022-10-16T18:36:30.921Z,6.27
2022-10-16T18:39:00.087Z,6.00
2022-10-16T18:41:29.339Z,6.90
2022-10-16T18:43:57.701Z,6.33
2022-10-16T18:46:27.253Z,7.07
2022-10-16T18:48:57.055Z,6.20
2022-10-16T18:51:29.405Z,7.10
2022-10-16T18:54:00.207Z,6.63
2022-10-16T18:56:32.691Z,7.10
2022-10-16T18:59:02.921Z,6.47
2022-10-16T19:01:34.333Z,6.33
2022-10-16T19:04:04.989Z,6.93
2022-10-16T19:06:38.104Z,7.23
2022-10-16T19:09:07.558Z,6.10
2022-10-16T19:11:37.957Z,6.13
2022-10-16T19:14:09.473Z,5.83
2022-10-16T19:16:38.765Z,6.60
2022-10-16T19:19:08.482Z,6.10
2022-10-16T19:21:40.865Z,6.17
2022-10-16T19:24:09.870Z,7.03
2022-10-16T19:26:41.196Z,7.30
2022-10-16T19:29:11.048Z,6.93
2022-10-16T19:31:39.592Z,6.03
2022-10-16T19:34:09.961Z,7.00
2022-10-16T19:36:40.926Z,6.13
2022-10-16T19:39:13.896Z,6.23
2022-10-16T19:41:42.254Z,6.67
2022-10-16T19:44:12.736Z,6.93
2022-10-16T19:46:40.823Z,6.67
2022-10-16T19:49:10.709Z,6.17
2022-10-16T19:51:41.169Z,6.43
2022-10-16T19:54:14.147Z,6.13
2022-10-16T19:56:42.942Z,6.30
2022-10-16T19:59:13.192Z,6.90
2022-10-16T20:01:41.636Z,6.53
2022-10-16T20:04:09.701Z,6.30
2022-10-16T20:06:39.518Z,5.67
2022-10-16T20:09:07.757Z,6.40
2022-10-16T20:11:36.979Z,5.80
2022-10-16T20:14:05.702Z,7.20
2022-10-16T20:16:34.076Z,6.40
2022-10-16T20:19:02.421Z,6.17
2022-10-16T20:21:33.025Z,5.47
2022-10-16T20:24:04.441Z,5.40
2022-10-16T20:26:32.635Z,6.80
2022-10-16T20:29:00.847Z,5.83
2022-10-16T20:31:30.563Z,6.10
2022-10-16T20:34:03.439Z,6.20
2022-10-16T20:36:31.907Z,6.37
2022-10-16T20:38:59.962Z,6.10
2022-10-16T20:41:29.677Z,7.20
2022-10-16T20:43:57.697Z,6.87
2022-10-16T20:46:28.416Z,6.30
2022-10-16T20:49:06.076Z,6.77
2022-10-16T20:51:39.802Z,7.47
2022-10-16T20:54:08.697Z,6.13
2022-10-16T20:56:38.646Z,6.67
2022-10-16T20:59:07.498Z,6.57
2022-10-16T21:01:36.946Z,6.53
2022-10-16T21:04:07.494Z,7.13
2022-10-16T21:06:37.704Z,5.90
2022-10-16T21:09:07.009Z,6.77
2022-10-16T21:11:38.532Z,6.80
2022-10-16T21:14:08.855Z,5.87
2022-10-16T21:16:36.964Z,6.80
2022-10-16T21:19:06.286Z,5.80
2022-10-16T21:21:38.167Z,6.27
2022-10-16T21:24:12.033Z,5.83
2022-10-16T21:26:44.820Z,5.93
2022-10-16T21:29:13.495Z,5.90
2022-10-16T21:31:42.758Z,7.10
2022-10-16T21:34:10.874Z,5.90
2022-10-16T21:36:41.299Z,7.70
2022-10-16T21:39:11.394Z,6.73
2022-10-16T21:41:39.660Z,7.37
2022-10-16T21:44:09.618Z,7.37
2022-10-16T21:46:39.284Z,7.77
2022-10-16T21:49:11.245Z,6.70
2022-10-16T21:51:41.726Z,6.83
2022-10-16T21:54:12.456Z,6.43
2022-10-16T21:56:40.912Z,6.63
2022-10-16T21:59:12.756Z,6.77
2022-10-16T22:01:41.883Z,7.10
2022-10-16T22:04:11.450Z,7.80
2022-10-16T22:06:40.327Z,7.83
2022-10-16T22:09:08.759Z,7.27
2022-10-16T22:11:39.104Z,7.73
2022-10-16T22:14:09.216Z,6.40
2022-10-16T22:16:39.464Z,6.37
2022-10-16T22:19:08.514Z,5.80
2022-10-16T22:21:40.417Z,6.13
2022-10-16T22:24:09.212Z,6.13
2022-10-16T22:26:38.176Z,7.40
2022-10-16T22:29:07.181Z,8.50
2022-10-16T22:31:36.166Z,7.87
2022-10-16T22:34:07.173Z,7.40
2022-10-16T22:36:35.750Z,7.00
2022-10-16T22:39:04.566Z,7.40
2022-10-16T22:41:33.377Z,6.67
2022-10-16T22:44:01.410Z,7.23
2022-10-16T22:46:31.709Z,6.90
2022-10-16T22:49:00.383Z,7.17
2022-10-16T22:51:30.258Z,7.33
2022-10-16T22:54:00.538Z,7.30
2022-10-16T22:56:29.102Z,7.50
2022-10-16T22:58:57.271Z,7.90
2022-10-16T23:01:28.790Z,8.17
2022-10-16T23:03:57.232Z,7.90
2022-10-16T23:06:25.609Z,8.97
2022-10-16T23:08:56.489Z,6.47
2022-10-16T23:11:25.507Z,7.57
2022-10-16T23:13:53.698Z,6.77
2022-10-16T23:16:24.077Z,7.27
2022-10-16T23:18:52.316Z,7.77
2022-10-16T23:21:23.203Z,7.23
2022-10-16T23:23:51.997Z,6.97
2022-10-16T23:26:23.182Z,6.90
2022-10-16T23:28:51.995Z,7.90
2022-10-16T23:31:21.434Z,7.00
2022-10-16T23:33:49.847Z,7.07
2022-10-16T23:36:19.469Z,7.63
2022-10-16T23:38:48.802Z,7.80
2022-10-16T23:41:18.596Z,7.03
2022-10-16T23:43:48.786Z,8.57
2022-10-16T23:46:18.512Z,7.63
2022-10-16T23:48:46.952Z,10.93
2022-10-16T23:51:15.773Z,11.00
2022-10-16T23:53:44.267Z,8.33
2022-10-16T23:56:12.528Z,7.73
2022-10-16T23:58:40.803Z,7.77
